createdAt,value
2022-09-23T00:00:14.870Z,9.15
2022-09-23T00:02:45.900Z,13.25
2022-09-23T00:05:12.832Z,9.13
2022-09-23T00:07:40.543Z,9.25
2022-09-23T00:10:08.193Z,7.88
2022-09-23T00:12:35.090Z,8.90
2022-09-23T00:15:03.332Z,9.43
2022-09-23T00:17:33.606Z,9.10
2022-09-23T00:20:02.155Z,8.85
2022-09-23T00:22:28.972Z,9.10
2022-09-23T00:24:55.625Z,8.95
2022-09-23T00:27:22.592Z,9.27
2022-09-23T00:29:49.265Z,9.23
2022-09-23T00:32:16.001Z,11.68
2022-09-23T00:34:44.443Z,9.48
2022-09-23T00:37:12.854Z,9.93
2022-09-23T00:39:39.590Z,11.35
2022-09-23T00:42:06.525Z,14.48
2022-09-23T00:44:45.453Z,10.57
2022-09-23T00:47:18.535Z,10.90
2022-09-23T00:49:47.866Z,11.63
2022-09-23T00:52:19.606Z,14.60
2022-09-23T00:54:47.370Z,10.73
2022-09-23T00:57:16.221Z,14.13
2022-09-23T00:59:44.114Z,11.65
2022-09-23T01:02:13.597Z,15.90
2022-09-23T01:04:41.056Z,12.35
2022-09-23T01:07:08.128Z,11.15
2022-09-23T01:09:36.826Z,14.68
2022-09-23T01:12:18.430Z,12.48
2022-09-23T01:17:24.071Z,11.93
2022-09-23T01:20:13.798Z,12.73
2022-09-23T01:22:46.666Z,12.40
2022-09-23T01:25:29.409Z,13.77
2022-09-23T01:28:16.178Z,12.38
2022-09-23T01:30:53.647Z,12.38
2022-09-23T01:33:25.012Z,16.45
2022-09-23T01:36:07.108Z,12.52
2022-09-23T01:38:44.998Z,12.00
2022-09-23T01:41:31.061Z,14.02
2022-09-23T01:44:04.105Z,13.80
2022-09-23T01:46:37.989Z,11.95
2022-09-23T01:49:09.960Z,12.88
2022-09-23T01:51:41.473Z,13.27
2022-09-23T01:56:42.828Z,13.57
2022-09-23T01:59:14.866Z,13.73
2022-09-23T02:01:55.900Z,12.23
2022-09-23T02:04:28.219Z,13.93
2022-09-23T02:06:59.181Z,15.98
2022-09-23T02:09:31.815Z,14.20
2022-09-23T02:12:05.533Z,13.50
2022-09-23T02:14:36.351Z,13.75
2022-09-23T02:17:10.668Z,13.18
2022-09-23T02:19:42.734Z,14.38
2022-09-23T02:22:12.910Z,20.45
2022-09-23T02:24:40.442Z,19.63
2022-09-23T02:27:15.510Z,15.05
2022-09-23T02:29:50.508Z,14.95
2022-09-23T02:32:23.725Z,15.05
2022-09-23T02:34:58.732Z,14.73
2022-09-23T02:37:35.803Z,14.15
2022-09-23T02:40:14.227Z,14.65
2022-09-23T02:42:49.638Z,16.30
2022-09-23T02:45:17.078Z,14.15
2022-09-23T02:47:50.042Z,15.85
2022-09-23T02:50:19.037Z,15.20
2022-09-23T02:52:46.579Z,15.95
2022-09-23T02:55:16.958Z,23.80
2022-09-23T02:57:44.846Z,18.05
2022-09-23T03:00:13.202Z,16.02
2022-09-23T03:02:57.317Z,18.77
2022-09-23T03:05:28.124Z,14.73
2022-09-23T03:08:13.713Z,17.33
2022-09-23T03:10:52.733Z,16.20
2022-09-23T03:13:29.491Z,16.20
2022-09-23T03:16:08.881Z,19.13
2022-09-23T03:18:42.868Z,16.38
2022-09-23T03:21:16.268Z,17.10
2022-09-23T03:23:46.518Z,17.83
2022-09-23T03:26:18.922Z,16.67
2022-09-23T03:28:49.773Z,18.10
2022-09-23T03:31:17.418Z,17.70
2022-09-23T03:33:50.367Z,18.15
2022-09-23T03:36:21.719Z,16.60
2022-09-23T03:38:51.814Z,18.55
2022-09-23T03:41:25.004Z,17.42
2022-09-23T03:43:54.128Z,16.60
2022-09-23T03:46:21.677Z,16.48
2022-09-23T03:48:49.877Z,17.23
2022-09-23T03:51:22.011Z,15.48
2022-09-23T03:53:48.851Z,17.15
2022-09-23T03:56:15.598Z,16.52
2022-09-23T03:58:42.481Z,16.88
2022-09-23T04:01:10.741Z,16.10
2022-09-23T04:03:37.642Z,16.25
2022-09-23T04:06:09.788Z,16.58
2022-09-23T04:08:36.478Z,16.30
2022-09-23T04:11:04.445Z,16.95
2022-09-23T04:13:32.117Z,16.40
2022-09-23T04:15:59.171Z,17.40
2022-09-23T04:18:26.052Z,17.35
2022-09-23T04:20:57.863Z,17.35
2022-09-23T04:23:28.475Z,17.40
2022-09-23T04:25:55.480Z,16.73
2022-09-23T04:28:22.769Z,17.80
2022-09-23T04:30:49.516Z,17.48
2022-09-23T04:33:17.069Z,17.80
2022-09-23T04:35:43.887Z,17.30
2022-09-23T04:38:12.213Z,17.45
2022-09-23T04:40:40.736Z,16.90
2022-09-23T04:43:11.710Z,17.63
2022-09-23T04:45:40.908Z,16.65
2022-09-23T04:48:09.675Z,18.88
2022-09-23T04:50:38.108Z,17.00
2022-09-23T04:53:05.610Z,16.25
2022-09-23T04:55:35.696Z,16.83
2022-09-23T04:58:12.326Z,16.58
2022-09-23T05:00:39.264Z,16.75
2022-09-23T05:03:08.208Z,16.88
2022-09-23T05:05:34.864Z,20.70
2022-09-23T05:08:02.417Z,20.23
2022-09-23T05:10:30.846Z,17.83
2022-09-23T05:12:58.060Z,16.63
2022-09-23T05:15:26.518Z,17.38
2022-09-23T05:17:53.498Z,19.60
2022-09-23T05:20:28.369Z,17.35
2022-09-23T05:22:55.519Z,18.30
2022-09-23T05:25:22.423Z,16.60
2022-09-23T05:27:49.218Z,16.48
2022-09-23T05:30:16.477Z,18.25
2022-09-23T05:32:44.587Z,17.98
2022-09-23T05:35:11.318Z,17.65
2022-09-23T05:37:38.043Z,19.15
2022-09-23T05:40:05.723Z,18.05
2022-09-23T05:42:33.125Z,16.25
2022-09-23T05:44:59.810Z,17.15
2022-09-23T05:47:27.083Z,16.45
2022-09-23T05:50:00.182Z,18.10
2022-09-23T05:52:27.837Z,16.90
2022-09-23T05:54:56.945Z,17.05
2022-09-23T05:57:23.936Z,17.75
2022-09-23T05:59:50.587Z,20.05
2022-09-23T06:02:17.803Z,17.60
2022-09-23T06:04:44.813Z,17.83
2022-09-23T06:07:12.874Z,19.23
2022-09-23T06:09:39.638Z,18.27
2022-09-23T06:12:06.945Z,18.08
2022-09-23T06:14:33.619Z,18.55
2022-09-23T06:17:00.361Z,17.20
2022-09-23T06:19:28.703Z,17.27
2022-09-23T06:21:55.365Z,17.75
2022-09-23T06:24:30.123Z,19.85
2022-09-23T06:26:58.298Z,17.08
2022-09-23T06:29:25.023Z,16.10
2022-09-23T06:31:51.722Z,16.80
2022-09-23T06:34:21.056Z,17.02
2022-09-23T06:36:48.284Z,16.27
2022-09-23T06:39:15.764Z,16.73
2022-09-23T06:41:44.779Z,17.10
2022-09-23T06:44:11.673Z,18.02
2022-09-23T06:46:38.488Z,17.80
2022-09-23T06:49:05.385Z,16.63
2022-09-23T06:51:32.631Z,16.98
2022-09-23T06:53:59.488Z,16.98
2022-09-23T06:56:26.660Z,16.27
2022-09-23T06:58:55.024Z,15.95
2022-09-23T07:01:21.898Z,16.48
2022-09-23T07:03:52.372Z,17.25
2022-09-23T07:06:19.176Z,17.23
2022-09-23T07:08:46.368Z,16.85
2022-09-23T07:11:14.046Z,16.92
2022-09-23T07:13:52.280Z,15.68
2022-09-23T07:16:23.912Z,16.17
2022-09-23T07:18:51.016Z,15.38
2022-09-23T07:21:19.311Z,14.77
2022-09-23T07:23:49.028Z,16.50
2022-09-23T07:26:23.305Z,14.98
2022-09-23T07:28:57.060Z,15.10
2022-09-23T07:31:38.376Z,15.63
2022-09-23T07:34:13.342Z,20.55
2022-09-23T07:36:40.576Z,15.65
2022-09-23T07:39:12.085Z,15.82
2022-09-23T07:41:39.497Z,15.95
2022-09-23T07:44:06.522Z,15.18
2022-09-23T07:46:49.728Z,15.90
2022-09-23T07:49:16.585Z,15.20
2022-09-23T07:51:43.553Z,15.10
2022-09-23T07:54:12.701Z,14.43
2022-09-23T07:56:39.676Z,14.45
2022-09-23T07:59:07.938Z,14.57
2022-09-23T08:01:38.112Z,14.38
2022-09-23T08:04:10.522Z,14.27
2022-09-23T08:06:41.743Z,14.02
2022-09-23T08:09:08.916Z,14.40
2022-09-23T08:11:38.674Z,13.18
2022-09-23T08:14:12.111Z,16.67
2022-09-23T08:16:41.785Z,13.80
2022-09-23T08:19:10.289Z,13.25
2022-09-23T08:21:47.985Z,13.18
2022-09-23T08:24:18.394Z,12.50
2022-09-23T08:26:46.432Z,13.20
2022-09-23T08:29:14.175Z,13.27
2022-09-23T08:31:41.335Z,13.48
2022-09-23T08:34:10.021Z,14.27
2022-09-23T08:36:37.034Z,13.23
2022-09-23T08:39:06.696Z,16.45
2022-09-23T08:41:43.573Z,12.98
2022-09-23T08:44:16.552Z,12.32
2022-09-23T08:46:49.519Z,17.10
2022-09-23T08:49:24.688Z,11.93
2022-09-23T08:51:54.461Z,14.15
2022-09-23T08:54:29.894Z,11.40
2022-09-23T08:57:07.837Z,11.45
2022-09-23T08:59:47.339Z,12.15
2022-09-23T09:02:18.408Z,11.57
2022-09-23T09:04:54.223Z,11.48
2022-09-23T09:07:41.710Z,11.48
2022-09-23T09:10:19.690Z,14.20
2022-09-23T09:12:51.021Z,11.68
2022-09-23T09:15:24.359Z,11.93
2022-09-23T09:18:02.927Z,21.00
2022-09-23T09:20:39.914Z,11.35
2022-09-23T09:23:20.848Z,11.68
2022-09-23T09:25:50.036Z,12.50
2022-09-23T09:28:25.251Z,12.13
2022-09-23T09:30:56.266Z,14.15
2022-09-23T09:33:31.715Z,14.23
2022-09-23T09:36:09.674Z,11.80
2022-09-23T09:38:37.022Z,12.27
2022-09-23T09:41:13.881Z,12.77
2022-09-23T09:43:44.206Z,12.80
2022-09-23T09:46:25.774Z,12.75
2022-09-23T09:48:56.323Z,11.90
2022-09-23T09:51:28.728Z,13.40
2022-09-23T09:54:15.080Z,12.27
2022-09-23T09:56:42.617Z,12.32
2022-09-23T09:59:11.472Z,12.57
2022-09-23T10:01:42.995Z,12.73
2022-09-23T10:07:05.524Z,11.95
2022-09-23T10:09:35.068Z,14.68
2022-09-23T10:12:12.832Z,12.20
2022-09-23T10:14:39.767Z,15.60
2022-09-23T10:17:08.514Z,12.02
2022-09-23T10:19:38.195Z,11.98
2022-09-23T10:22:18.403Z,13.38
2022-09-23T10:24:49.287Z,14.60
2022-09-23T10:27:51.735Z,14.13
2022-09-23T10:30:26.979Z,15.80
2022-09-23T10:32:56.983Z,13.95
2022-09-23T10:35:25.203Z,16.80
2022-09-23T10:38:28.423Z,16.67
2022-09-23T10:40:56.965Z,16.67
2022-09-23T10:43:32.894Z,14.45
2022-09-23T10:46:04.184Z,20.13
2022-09-23T10:48:57.112Z,15.88
2022-09-23T10:51:32.763Z,19.25
2022-09-23T10:54:09.987Z,16.50
2022-09-23T10:56:43.015Z,15.50
2022-09-23T10:59:31.983Z,16.30
2022-09-23T11:02:15.671Z,15.75
2022-09-23T11:05:17.030Z,18.38
2022-09-23T11:11:26.731Z,18.02
2022-09-23T11:15:00.210Z,18.98
2022-09-23T11:18:13.189Z,17.67
2022-09-23T11:24:52.857Z,18.38
2022-09-23T11:27:47.888Z,18.65
2022-09-23T11:30:42.375Z,21.30
2022-09-23T11:34:05.667Z,19.33
2022-09-23T11:40:26.774Z,18.80
2022-09-23T11:43:00.074Z,17.70
2022-09-23T11:48:46.989Z,18.33
2022-09-23T11:51:19.374Z,18.73
2022-09-23T11:54:27.749Z,17.65
2022-09-23T12:00:26.984Z,19.27
2022-09-23T12:06:02.883Z,17.08
2022-09-23T12:08:34.972Z,18.10
2022-09-23T12:19:25.065Z,22.40
2022-09-23T12:22:23.057Z,21.63
2022-09-23T12:25:16.021Z,20.33
2022-09-23T12:28:20.923Z,20.15
2022-09-23T12:30:50.192Z,22.95
2022-09-23T12:34:11.647Z,23.65
2022-09-23T12:37:17.790Z,23.70
2022-09-23T12:40:17.088Z,25.48
2022-09-23T12:42:54.220Z,24.13
2022-09-23T12:45:47.001Z,25.30
2022-09-23T12:48:45.857Z,31.25
2022-09-23T12:51:20.709Z,26.05
2022-09-23T12:54:20.250Z,29.75
2022-09-23T12:57:00.805Z,27.63
2022-09-23T12:59:50.598Z,31.55
2022-09-23T13:02:31.114Z,30.92
2022-09-23T13:05:18.960Z,28.73
2022-09-23T13:07:58.938Z,31.55
2022-09-23T13:10:54.492Z,31.27
2022-09-23T13:21:00.627Z,23.85
2022-09-23T13:28:01.476Z,29.85
2022-09-23T13:31:15.737Z,26.00
2022-09-23T13:37:31.175Z,27.83
2022-09-23T13:40:10.255Z,24.02
2022-09-23T13:42:40.826Z,28.52
2022-09-23T13:45:15.570Z,26.10
2022-09-23T13:47:43.798Z,30.45
2022-09-23T13:50:24.418Z,24.48
2022-09-23T14:03:17.924Z,22.50
2022-09-23T14:05:45.630Z,21.27
2022-09-23T14:08:14.610Z,19.98
2022-09-23T14:10:41.978Z,20.25
2022-09-23T14:13:15.717Z,23.02
2022-09-23T14:15:42.640Z,21.38
2022-09-23T14:18:14.702Z,21.65
2022-09-23T14:20:46.361Z,24.17
2022-09-23T14:23:14.629Z,25.13
2022-09-23T14:25:43.291Z,21.17
2022-09-23T14:28:15.085Z,20.73
2022-09-23T14:30:42.413Z,23.33
2022-09-23T14:33:11.114Z,24.48
2022-09-23T14:35:44.693Z,21.80
2022-09-23T14:38:11.552Z,21.95
2022-09-23T14:40:51.836Z,22.08
2022-09-23T14:43:23.879Z,24.20
2022-09-23T14:45:53.751Z,23.65
2022-09-23T14:48:24.559Z,21.33
2022-09-23T14:50:56.507Z,23.35
2022-09-23T14:53:34.302Z,25.55
2022-09-23T14:56:18.175Z,23.02
2022-09-23T14:58:52.259Z,26.55
2022-09-23T15:01:37.600Z,19.50
2022-09-23T15:04:14.189Z,20.90
2022-09-23T15:06:48.639Z,21.25
2022-09-23T15:09:27.853Z,22.40
2022-09-23T15:18:28.920Z,25.58
2022-09-23T15:31:42.627Z,23.25
2022-09-23T15:37:26.544Z,22.48
2022-09-23T15:43:20.169Z,24.15
2022-09-23T15:53:13.126Z,24.27
2022-09-23T16:03:07.482Z,26.00
2022-09-23T16:05:58.705Z,25.00
2022-09-23T16:08:58.953Z,27.23
2022-09-23T16:11:52.618Z,27.50
2022-09-23T16:14:20.394Z,25.15
2022-09-23T16:16:47.328Z,25.42
2022-09-23T16:19:21.469Z,24.58
2022-09-23T16:21:51.079Z,25.35
2022-09-23T16:25:01.765Z,23.45
2022-09-23T16:27:30.981Z,25.85
2022-09-23T16:29:59.571Z,23.75
2022-09-23T16:32:29.325Z,27.13
2022-09-23T16:35:07.865Z,23.77
2022-09-23T16:37:37.664Z,26.67
2022-09-23T16:40:10.398Z,23.48
2022-09-23T16:43:06.601Z,27.23
2022-09-23T16:45:41.167Z,22.95
2022-09-23T16:48:15.983Z,26.58
2022-09-23T16:51:02.832Z,23.13
2022-09-23T16:53:40.998Z,24.02
2022-09-23T16:56:27.985Z,24.58
2022-09-23T16:59:04.928Z,24.80
2022-09-23T17:01:45.257Z,23.27
2022-09-23T17:04:17.039Z,23.47
2022-09-23T17:09:30.871Z,32.17
2022-09-23T17:12:05.519Z,24.67
2022-09-23T17:14:34.607Z,26.27
2022-09-23T17:17:10.211Z,24.15
2022-09-23T17:19:38.007Z,23.10
2022-09-23T17:22:11.860Z,27.95
2022-09-23T17:25:03.591Z,22.52
2022-09-23T17:30:37.735Z,24.63
2022-09-23T17:33:26.438Z,29.27
2022-09-23T17:36:21.713Z,23.70
2022-09-23T17:38:58.165Z,26.38
2022-09-23T17:41:37.346Z,22.25
2022-09-23T17:44:06.737Z,22.10
2022-09-23T17:46:35.239Z,23.20
2022-09-23T17:49:10.984Z,23.27
2022-09-23T17:52:02.869Z,24.40
2022-09-23T17:54:56.749Z,27.02
2022-09-23T17:57:23.891Z,26.70
2022-09-23T18:00:14.184Z,32.33
2022-09-23T18:02:43.736Z,27.92
2022-09-23T18:05:19.714Z,33.58
2022-09-23T18:07:52.798Z,26.02
2022-09-23T18:10:39.012Z,26.02
2022-09-23T18:13:08.522Z,23.13
2022-09-23T18:15:55.856Z,24.58
2022-09-23T18:18:31.954Z,29.77
2022-09-23T18:21:00.912Z,24.08
2022-09-23T18:23:39.418Z,24.20
2022-09-23T18:26:26.347Z,25.30
2022-09-23T18:28:59.831Z,26.25
2022-09-23T18:31:41.798Z,29.95
2022-09-23T18:34:29.857Z,23.63
2022-09-23T18:37:15.261Z,31.08
2022-09-23T18:39:56.394Z,29.00
2022-09-23T18:46:21.481Z,27.35
2022-09-23T18:56:42.829Z,25.38
2022-09-23T19:02:09.101Z,28.88
2022-09-23T19:04:41.777Z,31.58
2022-09-23T19:07:49.841Z,28.65
2022-09-23T19:10:44.003Z,28.05
2022-09-23T19:13:37.931Z,31.60
2022-09-23T19:16:39.652Z,27.15
2022-09-23T19:22:25.077Z,31.27
2022-09-23T19:24:54.768Z,31.40
2022-09-23T19:27:34.252Z,33.13
2022-09-23T19:30:09.175Z,34.05
2022-09-23T19:32:36.296Z,29.40
2022-09-23T19:35:08.679Z,28.48
2022-09-23T19:37:57.130Z,34.15
2022-09-23T19:40:32.824Z,27.73
2022-09-23T19:43:07.369Z,27.92
2022-09-23T19:45:43.169Z,29.13
2022-09-23T19:48:11.548Z,28.65
2022-09-23T19:50:53.794Z,33.90
2022-09-23T19:53:32.791Z,25.67
2022-09-23T19:56:03.961Z,27.58
2022-09-23T19:58:55.778Z,27.45
2022-09-23T20:01:41.510Z,26.15
2022-09-23T20:04:19.845Z,26.50
2022-09-23T20:06:51.531Z,27.27
2022-09-23T20:09:32.477Z,28.20
2022-09-23T20:12:08.123Z,26.08
2022-09-23T20:14:38.968Z,27.98
2022-09-23T20:17:09.666Z,30.58
2022-09-23T20:19:48.093Z,31.77
2022-09-23T20:22:21.321Z,27.10
2022-09-23T20:24:50.559Z,28.90
2022-09-23T20:27:20.109Z,32.28
2022-09-23T20:29:49.302Z,28.25
2022-09-23T20:32:26.971Z,29.27
2022-09-23T20:34:59.908Z,32.63
2022-09-23T20:37:29.828Z,30.88
2022-09-23T20:40:06.700Z,28.85
2022-09-23T20:42:42.839Z,29.75
2022-09-23T20:45:12.539Z,29.42
2022-09-23T20:47:43.310Z,27.63
2022-09-23T20:50:12.331Z,31.60
2022-09-23T20:55:25.828Z,36.30
2022-09-23T20:58:04.064Z,32.75
2022-09-23T21:00:32.390Z,30.42
2022-09-23T21:06:01.953Z,38.22
2022-09-23T21:08:35.058Z,34.05
2022-09-23T21:11:33.227Z,29.25
2022-09-23T21:14:21.563Z,34.60
2022-09-23T21:17:08.942Z,31.20
2022-09-23T21:19:43.330Z,28.70
2022-09-23T21:22:19.912Z,34.47
2022-09-23T21:28:03.634Z,35.25
2022-09-23T21:30:48.519Z,33.13
2022-09-23T21:33:18.135Z,34.35
2022-09-23T21:35:57.145Z,33.15
2022-09-23T21:38:30.347Z,36.42
2022-09-23T21:43:57.246Z,31.95
2022-09-23T21:46:39.892Z,29.65
2022-09-23T21:49:21.700Z,37.60
2022-09-23T21:51:55.377Z,32.28
2022-09-23T21:54:35.637Z,32.58
2022-09-23T21:57:22.354Z,33.70
2022-09-23T21:59:57.762Z,36.65
2022-09-23T22:02:51.986Z,37.08
2022-09-23T22:05:35.347Z,41.53
2022-09-23T22:08:22.910Z,34.10
2022-09-23T22:10:49.916Z,35.80
2022-09-23T22:13:27.115Z,41.53
2022-09-23T22:18:45.182Z,40.42
2022-09-23T22:21:32.181Z,40.75
2022-09-23T22:24:11.373Z,39.25
2022-09-23T22:26:42.444Z,44.30
2022-09-23T22:29:22.837Z,39.35
2022-09-23T22:31:54.927Z,42.45
2022-09-23T22:34:49.973Z,40.65
2022-09-23T22:37:20.911Z,41.47
2022-09-23T22:39:55.238Z,43.50
2022-09-23T22:42:30.431Z,44.28
2022-09-23T22:45:00.575Z,51.45
2022-09-23T22:47:35.432Z,47.90
2022-09-23T22:50:18.658Z,50.50
2022-09-23T22:52:46.045Z,39.35
2022-09-23T22:55:15.867Z,48.92
2022-09-23T22:57:51.996Z,43.25
2022-09-23T23:00:26.581Z,44.40
2022-09-23T23:03:05.959Z,50.55
2022-09-23T23:05:37.350Z,46.15
2022-09-23T23:08:13.455Z,46.95
2022-09-23T23:10:40.197Z,47.65
2022-09-23T23:13:15.850Z,45.05
2022-09-23T23:15:49.177Z,46.22
2022-09-23T23:21:23.506Z,44.65
2022-09-23T23:24:15.259Z,53.47
2022-09-23T23:29:35.686Z,42.83
2022-09-23T23:32:08.617Z,50.85
2022-09-23T23:34:41.239Z,48.42
2022-09-23T23:37:31.020Z,45.95
2022-09-23T23:40:07.768Z,58.20
2022-09-23T23:42:37.596Z,54.10
2022-09-23T23:45:08.614Z,53.42
2022-09-23T23:47:38.439Z,50.83
2022-09-23T23:50:11.249Z,54.83
2022-09-23T23:52:44.868Z,56.17
2022-09-23T23:55:17.873Z,53.55
2022-09-23T23:57:58.551Z,56.67
